Time;durP1;ratioP1;P1;durP2;ratioP2;P2;SDS_P1;SDS_P2;PMS_P1;PMS_P2;Temp;Humidity;BMP_temperature;BMP_pressure;BME280_temperature;BME280_humidity;BME280_pressure;Samples;Min_cycle;Max_cycle;Signal;HPM_P1;HPM_P2
2021/12/26 00:00:44;;;;;;;1.47;0.80;;;21.70;36.80;;;;;;5072162;28;20388;-69
2021/12/26 00:03:10;;;;;;;1.42;0.90;;;21.70;36.80;;;;;;5072200;28;20388;-69
2021/12/26 00:05:36;;;;;;;1.30;0.88;;;21.70;36.80;;;;;;5071538;28;20760;-69
2021/12/26 00:08:02;;;;;;;1.23;0.68;;;21.70;36.80;;;;;;5071769;28;20879;-69
2021/12/26 00:10:29;;;;;;;1.88;1.08;;;21.70;36.80;;;;;;5071981;28;20392;-69
2021/12/26 00:12:56;;;;;;;1.42;0.80;;;21.60;36.70;;;;;;5071935;28;20380;-69
2021/12/26 00:15:23;;;;;;;1.65;0.80;;;21.60;36.70;;;;;;5071747;28;20440;-69
2021/12/26 00:17:49;;;;;;;1.42;0.80;;;21.70;36.70;;;;;;5071747;28;20748;-74
2021/12/26 00:20:16;;;;;;;1.42;0.95;;;21.60;36.60;;;;;;5071840;28;20399;-69
2021/12/26 00:22:42;;;;;;;1.20;0.80;;;21.60;36.70;;;;;;5071862;28;20379;-70
2021/12/26 00:25:09;;;;;;;1.33;0.90;;;21.60;36.60;;;;;;5071760;28;20899;-70
2021/12/26 00:27:36;;;;;;;1.70;0.90;;;21.60;36.60;;;;;;5071563;28;20380;-69
2021/12/26 00:30:04;;;;;;;1.13;0.75;;;21.60;36.60;;;;;;5053602;28;21291;-69
2021/12/26 00:32:30;;;;;;;1.08;0.80;;;21.60;36.60;;;;;;5071380;28;21002;-69
2021/12/26 00:34:56;;;;;;;1.23;0.70;;;21.60;36.60;;;;;;5071591;28;20486;-69
2021/12/26 00:37:21;;;;;;;1.47;0.83;;;21.60;36.60;;;;;;5071710;28;20390;-69
2021/12/26 00:39:47;;;;;;;1.10;0.77;;;21.60;36.50;;;;;;5071264;28;20481;-70
2021/12/26 00:42:13;;;;;;;1.33;0.70;;;21.60;36.60;;;;;;5053391;28;20771;-70
2021/12/26 00:44:40;;;;;;;0.98;0.60;;;21.60;36.50;;;;;;5053103;28;20411;-69
2021/12/26 00:47:08;;;;;;;1.20;0.75;;;21.50;36.50;;;;;;5053646;28;20391;-69
2021/12/26 00:49:34;;;;;;;1.38;0.70;;;21.50;36.50;;;;;;5053263;28;20437;-69
2021/12/26 00:52:00;;;;;;;1.20;0.70;;;21.60;36.50;;;;;;5053398;28;20422;-69
2021/12/26 00:54:26;;;;;;;1.80;0.85;;;21.50;36.50;;;;;;5071475;28;20411;-69
2021/12/26 00:56:52;;;;;;;1.03;0.60;;;21.50;36.50;;;;;;5071437;28;20416;-69
2021/12/26 00:59:17;;;;;;;0.82;0.60;;;21.50;37.10;;;;;;5071328;28;20415;-69
2021/12/26 01:01:43;;;;;;;1.13;0.70;;;21.50;36.50;;;;;;5053196;28;20401;-69
2021/12/26 01:04:09;;;;;;;0.98;0.60;;;21.50;36.40;;;;;;5071295;28;20402;-69
2021/12/26 01:06:35;;;;;;;1.40;0.80;;;21.50;36.50;;;;;;5053346;28;20405;-70
2021/12/26 01:09:01;;;;;;;1.10;0.68;;;21.50;36.50;;;;;;5071424;28;20392;-73
2021/12/26 01:11:45;;;;;;;1.08;0.60;;;21.50;36.50;;;;;;5071485;28;20426;-70
2021/12/26 01:14:13;;;;;;;1.02;0.50;;;21.50;36.50;;;;;;5053462;28;20395;-69
2021/12/26 01:16:40;;;;;;;1.00;0.57;;;21.50;36.50;;;;;;5070852;28;20391;-70
2021/12/26 01:19:09;;;;;;;1.00;0.65;;;21.50;36.50;;;;;;5070742;28;20419;-71
2021/12/26 01:21:35;;;;;;;1.05;0.60;;;21.50;36.50;;;;;;5052878;28;20383;-69
2021/12/26 01:24:13;;;;;;;0.90;0.60;;;21.40;36.40;;;;;;5070821;28;20392;-69
2021/12/26 01:26:39;;;;;;;0.90;0.70;;;21.50;36.50;;;;;;5070932;28;20387;-69
2021/12/26 01:29:05;;;;;;;1.10;0.70;;;21.40;36.40;;;;;;5053168;28;20904;-69
2021/12/26 01:31:32;;;;;;;0.93;0.60;;;21.50;36.50;;;;;;5052978;28;21273;-69
2021/12/26 01:34:04;;;;;;;1.15;0.70;;;21.40;36.40;;;;;;5070598;28;20895;-69
2021/12/26 01:36:31;;;;;;;0.80;0.60;;;21.50;36.40;;;;;;5053156;28;20798;-69
2021/12/26 01:38:59;;;;;;;0.80;0.60;;;21.50;36.30;;;;;;5070972;28;20419;-69
2021/12/26 01:41:25;;;;;;;1.02;0.52;;;21.50;36.30;;;;;;5070864;28;20388;-69
2021/12/26 01:43:56;;;;;;;1.10;0.70;;;21.50;36.20;;;;;;5052199;28;20422;-69
2021/12/26 01:46:23;;;;;;;1.17;0.60;;;21.50;36.20;;;;;;5052961;28;20387;-69
2021/12/26 01:49:01;;;;;;;1.02;0.60;;;21.50;36.10;;;;;;5070875;28;20395;-69
2021/12/26 01:51:26;;;;;;;0.98;0.60;;;21.40;36.20;;;;;;5070928;28;20927;-69
2021/12/26 01:53:52;;;;;;;0.88;0.50;;;21.40;36.20;;;;;;5070431;28;20502;-69
2021/12/26 01:56:17;;;;;;;1.00;0.60;;;21.40;36.20;;;;;;5072882;28;20439;-69
2021/12/26 01:58:43;;;;;;;0.80;0.50;;;21.40;36.20;;;;;;5074322;28;20484;-68
2021/12/26 02:01:12;;;;;;;1.00;0.60;;;21.40;36.80;;;;;;5056386;28;20740;-68
2021/12/26 02:03:39;;;;;;;1.00;0.60;;;21.40;36.20;;;;;;5074146;28;20721;-68
2021/12/26 02:06:07;;;;;;;0.98;0.55;;;21.40;36.30;;;;;;5074149;28;20407;-69
2021/12/26 02:08:34;;;;;;;1.00;0.50;;;21.40;36.20;;;;;;5056391;28;20467;-69
2021/12/26 02:11:02;;;;;;;0.70;0.50;;;21.40;36.20;;;;;;5056095;28;20384;-69
2021/12/26 02:13:33;;;;;;;0.80;0.50;;;21.30;36.20;;;;;;5056242;28;20399;-69
2021/12/26 02:15:59;;;;;;;0.70;0.50;;;21.40;36.10;;;;;;5055759;28;20829;-69
2021/12/26 02:18:25;;;;;;;0.75;0.50;;;21.40;36.10;;;;;;5073743;28;20412;-69
2021/12/26 02:28:52;;;;;;;0.90;0.50;;;21.40;36.10;;;;;;5074251;28;20858;-69
2021/12/26 02:31:18;;;;;;;0.70;0.50;;;21.40;36.00;;;;;;5055740;28;20478;-69
2021/12/26 02:33:44;;;;;;;1.00;0.55;;;21.30;36.00;;;;;;5073077;28;20376;-68
2021/12/26 02:36:10;;;;;;;0.90;0.50;;;21.30;36.00;;;;;;5073445;28;20755;-68
2021/12/26 02:38:36;;;;;;;0.80;0.50;;;21.30;36.00;;;;;;5073693;28;20407;-69
2021/12/26 02:41:04;;;;;;;0.90;0.50;;;21.30;36.00;;;;;;5073915;28;20384;-68
2021/12/26 02:43:32;;;;;;;0.65;0.50;;;21.30;36.10;;;;;;5055299;28;20419;-69
2021/12/26 02:46:04;;;;;;;0.73;0.40;;;21.30;36.00;;;;;;5073677;28;20917;-68
2021/12/26 02:48:30;;;;;;;0.80;0.50;;;21.30;36.00;;;;;;5073764;28;20466;-69
2021/12/26 02:50:57;;;;;;;0.80;0.50;;;21.30;36.00;;;;;;5055608;28;20487;-69
2021/12/26 02:53:23;;;;;;;0.90;0.50;;;21.30;35.90;;;;;;5073414;28;20376;-68
2021/12/26 02:55:52;;;;;;;1.05;0.60;;;21.30;36.00;;;;;;5073277;28;20376;-68
2021/12/26 02:58:18;;;;;;;1.20;0.57;;;21.30;36.50;;;;;;5055373;28;20403;-69
2021/12/26 03:00:51;;;;;;;0.80;0.50;;;21.30;35.90;;;;;;5055332;28;20400;-69
2021/12/26 03:03:17;;;;;;;1.17;0.60;;;21.30;35.80;;;;;;5055153;28;20390;-69
2021/12/26 03:05:45;;;;;;;0.90;0.60;;;21.30;35.90;;;;;;5054866;28;20400;-70
2021/12/26 03:08:16;;;;;;;0.90;0.60;;;21.30;35.80;;;;;;5072739;28;20380;-69
2021/12/26 03:10:42;;;;;;;0.80;0.50;;;21.30;35.80;;;;;;5073206;28;20420;-69
2021/12/26 03:13:10;;;;;;;0.80;0.50;;;21.30;35.90;;;;;;5055148;28;20384;-69
2021/12/26 03:15:37;;;;;;;0.60;0.40;;;21.30;35.80;;;;;;5072843;28;20395;-69
2021/12/26 03:18:04;;;;;;;0.60;0.43;;;21.30;35.80;;;;;;5072073;28;20436;-69
2021/12/26 03:20:34;;;;;;;0.88;0.50;;;21.30;35.90;;;;;;5054965;28;20396;-69
2021/12/26 03:23:01;;;;;;;0.70;0.60;;;21.30;35.80;;;;;;5055002;28;20391;-69
2021/12/26 03:25:28;;;;;;;0.65;0.40;;;21.30;35.80;;;;;;5054905;28;20393;-69
2021/12/26 03:27:54;;;;;;;0.80;0.50;;;21.20;35.80;;;;;;5072399;28;20392;-69
2021/12/26 03:30:23;;;;;;;0.70;0.45;;;21.20;35.70;;;;;;5054771;28;20395;-69
2021/12/26 03:32:48;;;;;;;1.02;0.52;;;21.20;35.80;;;;;;5072686;28;20398;-69
2021/12/26 03:35:14;;;;;;;0.70;0.40;;;21.20;35.80;;;;;;5054769;28;20392;-69
2021/12/26 03:37:41;;;;;;;0.90;0.40;;;21.20;35.80;;;;;;5054689;28;20391;-69
2021/12/26 03:40:08;;;;;;;0.70;0.50;;;21.20;35.80;;;;;;5072400;28;20404;-69
2021/12/26 03:42:34;;;;;;;0.85;0.57;;;21.20;35.80;;;;;;5072275;28;20947;-69
2021/12/26 03:45:00;;;;;;;1.40;0.60;;;21.20;35.70;;;;;;5054572;28;20402;-69
2021/12/26 03:47:26;;;;;;;0.93;0.50;;;21.20;35.70;;;;;;5072186;28;20380;-69
2021/12/26 03:49:53;;;;;;;0.60;0.40;;;21.20;35.70;;;;;;5053647;28;20494;-70
2021/12/26 03:52:22;;;;;;;1.00;0.60;;;21.20;35.70;;;;;;5054416;28;20591;-69
2021/12/26 03:54:48;;;;;;;0.88;0.45;;;21.20;35.70;;;;;;5072377;28;20514;-69
2021/12/26 03:57:14;;;;;;;0.90;0.60;;;21.20;35.70;;;;;;5072220;28;20448;-69
2021/12/26 03:59:39;;;;;;;1.33;0.50;;;21.20;35.70;;;;;;5072018;28;20423;-69
2021/12/26 04:02:07;;;;;;;0.75;0.50;;;21.20;35.60;;;;;;5071627;28;20384;-69
2021/12/26 04:04:33;;;;;;;1.20;0.52;;;21.20;35.70;;;;;;5054116;28;20741;-69
2021/12/26 04:06:59;;;;;;;0.80;0.50;;;21.20;35.60;;;;;;5071974;28;20383;-69
2021/12/26 04:09:24;;;;;;;1.13;0.60;;;21.20;35.60;;;;;;5071929;28;20856;-69
2021/12/26 04:11:50;;;;;;;0.90;0.60;;;21.20;35.50;;;;;;5071718;28;20896;-69
2021/12/26 04:14:17;;;;;;;1.13;0.68;;;21.20;35.50;;;;;;5053816;28;20450;-69
2021/12/26 04:16:43;;;;;;;0.98;0.60;;;21.20;35.40;;;;;;5054049;28;20384;-69
2021/12/26 04:19:09;;;;;;;0.80;0.50;;;21.20;35.40;;;;;;5070387;28;20492;-74
2021/12/26 04:21:35;;;;;;;1.40;0.52;;;21.20;35.60;;;;;;5071847;28;20375;-69
2021/12/26 04:24:02;;;;;;;1.05;0.60;;;21.20;35.40;;;;;;5053330;28;20400;-68
2021/12/26 04:26:28;;;;;;;1.20;0.70;;;21.20;35.50;;;;;;5053836;28;20476;-69
2021/12/26 04:28:54;;;;;;;1.40;0.68;;;21.20;35.50;;;;;;5071441;28;20478;-68
2021/12/26 04:31:19;;;;;;;1.00;0.60;;;21.20;35.50;;;;;;5071692;28;20417;-69
2021/12/26 04:33:46;;;;;;;1.13;0.73;;;21.20;35.50;;;;;;5071452;28;20442;-69
2021/12/26 04:36:13;;;;;;;1.60;0.85;;;21.20;35.50;;;;;;5071422;28;20892;-69
2021/12/26 04:38:39;;;;;;;1.52;0.90;;;21.20;35.40;;;;;;5071595;28;20455;-68
2021/12/26 04:41:06;;;;;;;1.48;1.00;;;21.20;35.50;;;;;;5071612;28;20853;-68
2021/12/26 04:43:34;;;;;;;1.25;0.80;;;21.20;35.40;;;;;;5071317;28;20415;-68
2021/12/26 04:46:02;;;;;;;1.42;0.95;;;21.20;35.40;;;;;;5071064;28;20462;-68
2021/12/26 04:48:28;;;;;;;1.70;1.30;;;21.10;35.40;;;;;;5071357;28;20887;-68
2021/12/26 04:50:54;;;;;;;1.52;1.00;;;21.20;35.40;;;;;;5071548;28;20383;-69
2021/12/26 04:53:20;;;;;;;1.38;0.98;;;21.10;35.40;;;;;;5071400;28;20420;-70
2021/12/26 04:55:46;;;;;;;1.33;0.90;;;21.10;35.40;;;;;;5053093;28;20950;-69
2021/12/26 04:58:11;;;;;;;1.55;1.00;;;21.10;35.40;;;;;;5071076;28;20887;-70
2021/12/26 05:00:37;;;;;;;1.38;1.05;;;21.10;35.40;;;;;;5053351;28;20400;-69
2021/12/26 05:03:04;;;;;;;1.20;0.93;;;21.10;35.30;;;;;;5071190;28;20395;-69
2021/12/26 05:05:30;;;;;;;1.42;1.05;;;21.10;35.40;;;;;;5070934;28;20406;-69
2021/12/26 05:07:56;;;;;;;1.50;1.02;;;21.10;35.40;;;;;;5070588;28;20410;-69
2021/12/26 05:10:25;;;;;;;1.23;0.90;;;21.10;35.30;;;;;;5053163;28;20403;-69
2021/12/26 05:12:51;;;;;;;1.48;1.00;;;21.10;35.40;;;;;;5053225;28;20438;-69
2021/12/26 05:15:17;;;;;;;1.30;1.00;;;21.10;35.40;;;;;;5071022;28;20388;-69
2021/12/26 05:17:43;;;;;;;1.40;0.90;;;21.10;35.40;;;;;;5071125;28;20517;-69
2021/12/26 05:20:10;;;;;;;1.10;0.88;;;21.10;35.40;;;;;;5052535;28;20558;-69
2021/12/26 05:22:38;;;;;;;1.50;1.10;;;21.10;35.40;;;;;;5053188;28;20438;-69
2021/12/26 05:25:06;;;;;;;1.25;0.90;;;21.10;35.30;;;;;;5071146;28;20399;-68
2021/12/26 05:27:33;;;;;;;1.45;0.95;;;21.10;35.30;;;;;;5053129;28;20441;-69
2021/12/26 05:29:59;;;;;;;1.40;0.90;;;21.10;35.20;;;;;;5072459;28;20864;-69
2021/12/26 05:32:24;;;;;;;1.63;1.20;;;21.10;35.20;;;;;;5074982;28;20398;-68
2021/12/26 05:34:50;;;;;;;1.43;0.87;;;21.10;35.30;;;;;;5074877;28;20480;-68
2021/12/26 05:37:16;;;;;;;1.40;0.90;;;21.10;35.20;;;;;;5056973;28;20388;-68
2021/12/26 05:39:42;;;;;;;1.50;0.90;;;21.10;35.20;;;;;;5056990;28;20411;-68
2021/12/26 05:42:14;;;;;;;1.40;0.90;;;21.10;35.30;;;;;;5074171;28;20422;-68
2021/12/26 05:44:40;;;;;;;1.23;0.90;;;21.10;35.20;;;;;;5074805;28;20426;-68
2021/12/26 05:47:05;;;;;;;1.60;1.13;;;21.10;35.30;;;;;;5056861;28;20415;-69
2021/12/26 05:49:31;;;;;;;1.47;0.97;;;21.10;35.20;;;;;;5056510;28;20399;-69
2021/12/26 05:51:57;;;;;;;1.60;0.90;;;21.00;35.10;;;;;;5074421;28;20747;-69
2021/12/26 05:54:22;;;;;;;1.33;1.00;;;21.10;35.20;;;;;;5056461;28;20396;-69
2021/12/26 05:56:48;;;;;;;1.98;1.10;;;21.00;35.20;;;;;;5074340;28;20383;-69
2021/12/26 05:59:14;;;;;;;1.50;1.02;;;21.00;35.20;;;;;;5056390;28;20919;-69
2021/12/26 06:01:40;;;;;;;1.70;1.30;;;21.00;35.20;;;;;;5056361;28;20415;-70
2021/12/26 06:04:05;;;;;;;1.70;1.30;;;21.00;35.10;;;;;;5056151;28;20395;-69
2021/12/26 06:06:31;;;;;;;1.87;1.20;;;21.00;35.10;;;;;;5074119;28;20380;-69
2021/12/26 06:08:57;;;;;;;1.50;1.10;;;21.00;35.10;;;;;;5074154;28;20391;-69
2021/12/26 06:11:23;;;;;;;1.77;1.20;;;21.00;35.10;;;;;;5074300;28;20487;-69
2021/12/26 06:13:49;;;;;;;1.50;1.10;;;21.00;35.10;;;;;;5073987;28;20406;-68
2021/12/26 06:16:14;;;;;;;1.90;1.27;;;21.00;35.10;;;;;;5073950;28;20384;-68
2021/12/26 06:18:40;;;;;;;1.60;1.10;;;21.00;35.10;;;;;;5074003;28;20419;-69
2021/12/26 06:21:05;;;;;;;1.30;1.03;;;21.00;35.10;;;;;;5055331;28;20391;-68
2021/12/26 06:23:31;;;;;;;1.90;1.20;;;21.00;35.10;;;;;;5073962;28;20990;-69
2021/12/26 06:25:57;;;;;;;1.57;1.20;;;21.00;35.10;;;;;;5055900;28;20898;-69
2021/12/26 06:28:22;;;;;;;1.58;1.17;;;21.00;35.10;;;;;;5055891;28;20383;-68
2021/12/26 06:30:48;;;;;;;1.70;1.30;;;21.00;35.10;;;;;;5056094;28;20391;-69
2021/12/26 06:33:13;;;;;;;1.65;1.30;;;21.00;35.10;;;;;;5056019;28;20399;-69
2021/12/26 06:35:39;;;;;;;1.90;1.30;;;21.00;35.10;;;;;;5055997;28;20748;-69
2021/12/26 06:38:05;;;;;;;2.00;1.10;;;21.00;35.10;;;;;;5073242;28;20748;-68
2021/12/26 06:40:30;;;;;;;1.60;1.07;;;21.00;35.10;;;;;;5073381;28;20396;-69
2021/12/26 06:42:56;;;;;;;1.50;1.20;;;21.00;35.00;;;;;;5073187;28;20392;-70
2021/12/26 06:45:22;;;;;;;1.50;1.20;;;21.00;34.90;;;;;;5055692;28;20564;-70
2021/12/26 06:47:51;;;;;;;1.70;1.05;;;21.00;34.90;;;;;;5055533;28;20427;-69
2021/12/26 06:50:19;;;;;;;1.55;1.20;;;21.00;35.00;;;;;;5073348;28;20413;-69
2021/12/26 06:52:45;;;;;;;1.40;1.10;;;21.00;34.90;;;;;;5055457;28;20380;-69
2021/12/26 06:55:10;;;;;;;2.00;1.30;;;21.00;35.00;;;;;;5055785;28;20410;-70
2021/12/26 06:57:37;;;;;;;1.63;1.27;;;21.00;35.00;;;;;;5055376;28;20419;-69
2021/12/26 07:00:07;;;;;;;1.70;1.20;;;21.00;35.00;;;;;;5072597;28;20887;-69
2021/12/26 07:02:33;;;;;;;1.50;0.98;;;21.00;35.00;;;;;;5073137;28;20375;-69
2021/12/26 07:04:58;;;;;;;1.60;1.13;;;21.00;35.00;;;;;;5054280;28;20403;-69
2021/12/26 07:07:24;;;;;;;1.53;1.10;;;21.00;34.80;;;;;;5054660;28;20388;-69
2021/12/26 07:09:50;;;;;;;1.40;1.00;;;21.00;35.10;;;;;;5055147;28;20756;-69
2021/12/26 07:12:15;;;;;;;1.53;1.10;;;20.90;34.90;;;;;;5054801;28;20441;-69
2021/12/26 07:14:41;;;;;;;1.40;1.13;;;20.90;35.00;;;;;;5055170;28;20392;-69
2021/12/26 07:17:10;;;;;;;1.60;1.30;;;20.90;35.00;;;;;;5073091;28;20384;-69
2021/12/26 07:19:35;;;;;;;1.80;1.30;;;20.90;34.90;;;;;;5054788;28;20423;-68
2021/12/26 07:22:01;;;;;;;1.60;1.30;;;20.90;35.00;;;;;;5072614;28;20740;-68
2021/12/26 07:24:27;;;;;;;1.75;1.40;;;21.00;35.00;;;;;;5054767;28;20880;-69
2021/12/26 07:26:52;;;;;;;1.67;1.30;;;20.90;35.00;;;;;;5072758;28;20392;-69
2021/12/26 07:29:18;;;;;;;1.48;1.10;;;20.90;34.90;;;;;;5072694;28;20392;-69
2021/12/26 07:31:44;;;;;;;1.70;1.27;;;21.00;34.90;;;;;;5054867;28;20406;-69
2021/12/26 07:34:09;;;;;;;1.90;1.20;;;20.90;34.90;;;;;;5072126;28;20848;-69
2021/12/26 07:36:35;;;;;;;2.97;1.50;;;20.90;35.10;;;;;;5072104;28;20396;-68
2021/12/26 07:39:01;;;;;;;3.20;1.42;;;21.00;35.10;;;;;;5072151;28;20444;-71
2021/12/26 07:41:26;;;;;;;2.57;1.60;;;21.00;34.30;;;;;;5054481;28;20380;-69
2021/12/26 07:43:52;;;;;;;4.32;1.60;;;20.90;33.70;;;;;;5072278;28;20414;-69
2021/12/26 07:46:18;;;;;;;3.57;2.07;;;20.90;34.50;;;;;;5071975;28;20388;-68
2021/12/26 07:48:44;;;;;;;5.22;1.80;;;20.90;35.10;;;;;;5072075;28;20860;-69
2021/12/26 07:51:10;;;;;;;3.17;1.70;;;20.90;35.30;;;;;;5072317;28;20406;-70
2021/12/26 07:53:35;;;;;;;2.25;1.70;;;20.90;35.70;;;;;;5072181;28;20394;-68
2021/12/26 07:56:01;;;;;;;3.33;1.80;;;20.80;35.80;;;;;;5072843;28;20391;-68
2021/12/26 07:58:27;;;;;;;3.27;1.60;;;20.90;35.90;;;;;;5075064;28;20403;-68
2021/12/26 08:00:53;;;;;;;5.18;1.80;;;20.90;35.90;;;;;;5073577;28;20398;-68
2021/12/26 08:03:18;;;;;;;2.10;1.77;;;20.90;35.90;;;;;;5073332;28;20388;-68
2021/12/26 08:05:44;;;;;;;2.53;1.70;;;20.90;35.80;;;;;;5072509;28;20391;-68
2021/12/26 08:08:10;;;;;;;2.97;1.80;;;20.90;35.90;;;;;;5071706;28;20470;-70
2021/12/26 08:10:36;;;;;;;2.73;1.43;;;20.90;35.90;;;;;;5055821;28;20398;-68
2021/12/26 08:13:01;;;;;;;4.03;1.70;;;20.90;36.20;;;;;;5072227;28;20437;-71
2021/12/26 08:15:27;;;;;;;4.00;1.60;;;20.80;36.40;;;;;;5071932;28;20372;-71
2021/12/26 08:17:53;;;;;;;3.60;1.50;;;20.80;36.90;;;;;;5072146;28;20430;-71
2021/12/26 08:20:18;;;;;;;2.30;1.60;;;20.90;36.50;;;;;;5071165;28;20407;-70
2021/12/26 08:22:44;;;;;;;3.07;1.43;;;20.80;37.10;;;;;;5071781;28;20387;-70
2021/12/26 08:25:10;;;;;;;2.40;1.45;;;20.80;36.70;;;;;;5071618;28;20867;-71
2021/12/26 08:27:37;;;;;;;2.58;1.60;;;20.80;36.80;;;;;;5051889;28;20404;-68
2021/12/26 08:30:04;;;;;;;2.38;1.60;;;20.80;36.90;;;;;;5051852;28;20389;-68
2021/12/26 08:32:32;;;;;;;2.92;1.50;;;20.80;36.70;;;;;;5051639;28;21120;-68
2021/12/26 08:35:00;;;;;;;2.35;1.70;;;20.80;36.70;;;;;;5051725;28;20416;-68
2021/12/26 08:37:27;;;;;;;4.30;1.60;;;20.80;36.70;;;;;;5051404;28;20452;-68
2021/12/26 08:39:52;;;;;;;5.00;1.80;;;20.80;36.60;;;;;;5051445;28;20789;-70
2021/12/26 08:42:18;;;;;;;5.10;1.80;;;20.90;37.50;;;;;;5051689;28;20392;-70
2021/12/26 08:44:44;;;;;;;4.75;1.60;;;20.90;37.30;;;;;;5051694;28;20404;-71
2021/12/26 08:47:10;;;;;;;4.70;1.90;;;20.90;37.80;;;;;;5052139;28;20397;-72
2021/12/26 08:49:37;;;;;;;3.65;1.70;;;20.90;38.10;;;;;;5051129;28;20396;-70
2021/12/26 08:52:03;;;;;;;3.20;1.75;;;20.80;37.60;;;;;;5049380;28;20885;-70
2021/12/26 08:54:30;;;;;;;4.45;1.70;;;20.80;39.20;;;;;;5050320;28;20905;-69
2021/12/26 08:56:56;;;;;;;2.08;1.60;;;20.80;39.20;;;;;;5045445;28;20861;-70
2021/12/26 08:59:29;;;;;;;3.25;1.52;;;20.80;37.50;;;;;;5050428;28;20448;-71
2021/12/26 09:01:56;;;;;;;2.75;1.60;;;20.80;37.30;;;;;;5051316;28;20428;-69
2021/12/26 09:04:21;;;;;;;4.13;1.70;;;20.80;37.60;;;;;;5053102;28;20394;-69
2021/12/26 09:06:47;;;;;;;5.35;1.80;;;20.80;37.60;;;;;;5057582;28;20748;-69
2021/12/26 09:09:13;;;;;;;5.10;1.47;;;20.90;37.20;;;;;;5057715;28;20466;-71
2021/12/26 09:11:39;;;;;;;4.95;1.77;;;20.90;37.10;;;;;;5056640;28;20413;-69
2021/12/26 09:14:04;;;;;;;3.97;1.50;;;20.90;37.10;;;;;;5038734;28;20404;-70
2021/12/26 09:16:33;;;;;;;3.70;1.63;;;20.90;36.50;;;;;;5057229;28;20888;-69
2021/12/26 09:18:59;;;;;;;3.65;1.67;;;20.90;36.60;;;;;;5057673;28;20786;-69
2021/12/26 09:21:25;;;;;;;4.13;1.50;;;20.90;36.60;;;;;;5057487;28;20881;-70
2021/12/26 09:23:50;;;;;;;3.30;1.70;;;20.90;36.50;;;;;;5057640;28;20431;-69
2021/12/26 09:26:16;;;;;;;3.53;1.70;;;20.90;36.50;;;;;;5057469;28;20427;-70
2021/12/26 09:28:42;;;;;;;3.30;1.58;;;20.90;36.40;;;;;;5057793;28;20389;-69
2021/12/26 09:31:07;;;;;;;4.00;1.60;;;20.90;36.30;;;;;;5033569;28;20397;-69
2021/12/26 09:33:34;;;;;;;3.25;1.75;;;20.90;36.20;;;;;;5047878;28;20911;-71
2021/12/26 09:36:00;;;;;;;3.70;1.48;;;20.90;36.10;;;;;;5064868;28;20531;-70
2021/12/26 09:38:26;;;;;;;3.50;1.80;;;20.90;36.00;;;;;;5045023;28;20414;-70
2021/12/26 09:40:52;;;;;;;4.18;1.50;;;20.90;36.00;;;;;;5048979;28;20400;-70
2021/12/26 09:43:18;;;;;;;3.28;1.67;;;20.90;35.90;;;;;;5069773;28;20416;-69
2021/12/26 09:45:44;;;;;;;2.65;1.58;;;20.90;35.80;;;;;;5076298;28;20383;-69
2021/12/26 09:48:09;;;;;;;3.67;1.70;;;20.90;35.80;;;;;;5076441;28;20751;-71
2021/12/26 09:50:35;;;;;;;4.22;1.75;;;20.90;35.80;;;;;;5074748;28;20383;-70
2021/12/26 09:53:03;;;;;;;2.97;1.65;;;20.90;35.80;;;;;;5081946;28;20415;-69
2021/12/26 09:55:30;;;;;;;3.97;1.58;;;20.90;35.70;;;;;;5076359;28;20787;-69
2021/12/26 09:57:56;;;;;;;2.85;1.85;;;20.90;35.70;;;;;;5072422;28;20616;-70
2021/12/26 10:00:27;;;;;;;2.65;1.85;;;20.90;35.70;;;;;;5055626;28;20415;-69
2021/12/26 10:03:18;;;;;;;2.25;1.70;;;20.90;35.60;;;;;;5056009;28;20441;-69
2021/12/26 10:06:13;;;;;;;3.00;1.70;;;20.90;35.60;;;;;;5058135;28;20385;-70
2021/12/26 10:08:59;;;;;;;2.60;1.63;;;20.90;35.60;;;;;;5059376;28;20758;-69
2021/12/26 10:11:36;;;;;;;2.50;1.60;;;20.90;35.60;;;;;;5077298;28;20847;-69
2021/12/26 10:14:05;;;;;;;2.58;1.60;;;20.90;35.50;;;;;;5058814;28;20767;-69
2021/12/26 10:16:44;;;;;;;2.25;1.60;;;20.90;35.50;;;;;;5055646;28;20754;-69
2021/12/26 10:19:11;;;;;;;3.20;1.90;;;20.90;35.40;;;;;;5055601;28;20423;-69
2021/12/26 10:21:50;;;;;;;2.42;1.80;;;20.90;35.40;;;;;;5056029;28;20419;-69
2021/12/26 10:24:19;;;;;;;3.05;1.83;;;20.90;35.40;;;;;;5066627;28;20399;-70
2021/12/26 10:26:53;;;;;;;2.67;1.50;;;20.90;35.40;;;;;;5081986;28;20389;-69
2021/12/26 10:29:34;;;;;;;3.55;1.98;;;20.90;35.40;;;;;;5094032;28;20386;-70
2021/12/26 10:32:21;;;;;;;2.55;1.75;;;20.90;35.30;;;;;;5093137;28;20386;-69
2021/12/26 10:35:11;;;;;;;2.58;1.80;;;20.90;35.40;;;;;;5082502;28;20402;-69
2021/12/26 10:37:39;;;;;;;2.97;1.80;;;20.90;35.30;;;;;;5081504;28;20391;-69
2021/12/26 10:40:10;;;;;;;3.25;1.80;;;20.90;35.30;;;;;;5061382;28;20507;-71
2021/12/26 10:42:39;;;;;;;2.65;1.90;;;20.90;35.30;;;;;;5072849;28;20404;-70
2021/12/26 10:45:13;;;;;;;2.35;1.80;;;20.90;35.30;;;;;;5055868;28;20911;-71
2021/12/26 10:47:41;;;;;;;2.88;1.90;;;20.90;35.30;;;;;;5073703;28;20384;-70
2021/12/26 10:50:09;;;;;;;3.47;1.80;;;20.90;35.30;;;;;;5064643;28;20811;-71
2021/12/26 10:52:40;;;;;;;3.83;2.30;;;20.90;35.30;;;;;;5085374;28;20387;-72
2021/12/26 10:55:12;;;;;;;2.53;1.80;;;20.90;35.30;;;;;;5049675;28;20399;-70
2021/12/26 10:57:43;;;;;;;2.95;2.05;;;20.90;35.20;;;;;;5070240;28;20481;-69
2021/12/26 11:00:29;;;;;;;3.72;2.20;;;20.90;35.20;;;;;;5073603;28;20420;-70
2021/12/26 11:03:01;;;;;;;3.15;2.00;;;20.90;35.10;;;;;;5069350;28;20388;-69
2021/12/26 11:05:39;;;;;;;4.45;2.85;;;20.90;35.20;;;;;;5052452;28;20967;-69
2021/12/26 11:08:13;;;;;;;7.32;3.40;;;20.90;35.10;;;;;;5073173;28;20879;-71
2021/12/26 11:10:45;;;;;;;6.30;2.80;;;20.90;35.30;;;;;;5037754;28;20863;-69
2021/12/26 11:13:25;;;;;;;5.32;3.20;;;20.90;35.50;;;;;;5071597;28;20396;-71
2021/12/26 11:15:57;;;;;;;6.70;3.20;;;20.90;35.50;;;;;;5040067;28;20402;-68
2021/12/26 11:18:23;;;;;;;5.65;3.25;;;20.90;35.30;;;;;;5068143;28;20767;-70
2021/12/26 11:20:56;;;;;;;6.20;3.88;;;20.90;35.30;;;;;;5072357;28;20506;-72
2021/12/26 11:23:28;;;;;;;5.80;3.60;;;21.00;35.40;;;;;;5072237;28;20395;-68
2021/12/26 11:26:00;;;;;;;11.95;3.90;;;21.00;35.40;;;;;;5072696;28;20929;-67
2021/12/26 11:28:30;;;;;;;10.63;3.92;;;21.00;35.60;;;;;;5071970;28;20383;-68
2021/12/26 11:30:59;;;;;;;11.63;3.65;;;21.00;35.90;;;;;;5070936;28;20466;-68
2021/12/26 11:33:25;;;;;;;9.85;3.63;;;21.10;35.90;;;;;;5072209;28;20406;-70
2021/12/26 11:35:53;;;;;;;6.97;3.20;;;21.10;35.90;;;;;;5069615;28;20402;-68
2021/12/26 11:38:22;;;;;;;6.93;3.70;;;21.10;36.00;;;;;;5050175;28;20778;-73
2021/12/26 11:40:55;;;;;;;6.53;3.50;;;21.20;35.90;;;;;;5071689;28;20461;-69
2021/12/26 11:43:33;;;;;;;8.00;3.50;;;21.20;35.80;;;;;;5059058;28;20392;-68
2021/12/26 11:46:20;;;;;;;5.70;3.80;;;21.20;35.90;;;;;;5069651;28;20405;-68
2021/12/26 11:49:06;;;;;;;6.93;3.40;;;21.20;36.00;;;;;;5069607;28;20477;-69
2021/12/26 11:51:56;;;;;;;5.82;3.53;;;21.30;35.80;;;;;;5071596;28;20383;-68
2021/12/26 11:54:58;;;;;;;7.15;3.30;;;21.30;35.70;;;;;;5055546;28;20380;-67
2021/12/26 11:57:57;;;;;;;6.95;3.40;;;21.30;35.80;;;;;;5071379;28;20512;-73
2021/12/26 12:00:37;;;;;;;6.43;3.40;;;21.30;35.50;;;;;;5069342;28;20407;-73
2021/12/26 12:03:20;;;;;;;6.25;3.28;;;21.30;35.70;;;;;;5060619;28;21075;-73
2021/12/26 12:05:46;;;;;;;5.22;3.22;;;21.30;35.90;;;;;;5065603;28;20419;-74
2021/12/26 12:08:14;;;;;;;5.53;3.45;;;21.30;35.80;;;;;;5059763;28;20403;-74
2021/12/26 12:10:46;;;;;;;6.57;3.20;;;21.30;36.40;;;;;;5057250;28;20376;-74
2021/12/26 12:13:27;;;;;;;7.60;3.13;;;21.40;37.50;;;;;;5069370;28;20403;-73
2021/12/26 12:15:58;;;;;;;7.53;3.47;;;21.40;39.00;;;;;;5073260;28;20383;-70
2021/12/26 12:18:44;;;;;;;5.65;3.33;;;21.40;39.70;;;;;;5068593;28;20407;-71
2021/12/26 12:21:16;;;;;;;7.47;3.30;;;21.40;40.50;;;;;;5069048;28;20482;-74
2021/12/26 12:23:57;;;;;;;9.48;3.47;;;21.50;41.40;;;;;;5068044;28;20968;-69
2021/12/26 12:26:50;;;;;;;5.43;3.20;;;21.50;42.40;;;;;;5064693;28;20391;-75
2021/12/26 12:29:41;;;;;;;5.25;3.17;;;21.60;42.00;;;;;;5068985;28;20479;-71
2021/12/26 12:32:07;;;;;;;7.88;3.40;;;21.60;42.20;;;;;;5048089;28;20416;-71
2021/12/26 12:35:05;;;;;;;5.87;3.13;;;21.60;41.80;;;;;;5058791;28;20875;-74
2021/12/26 12:37:48;;;;;;;10.73;7.38;;;21.60;41.50;;;;;;5067793;28;20380;-74
2021/12/26 12:40:16;;;;;;;7.30;3.30;;;21.60;43.00;;;;;;5049956;28;20419;-74
2021/12/26 12:42:58;;;;;;;9.13;4.32;;;21.60;42.80;;;;;;5050327;28;20768;-69
2021/12/26 12:45:24;;;;;;;7.72;4.47;;;21.60;43.70;;;;;;5049355;28;20403;-73
2021/12/26 12:48:28;;;;;;;8.38;4.10;;;21.70;42.70;;;;;;5067637;28;20394;-68
2021/12/26 12:50:57;;;;;;;8.45;4.25;;;21.70;41.80;;;;;;5070362;28;20748;-69
2021/12/26 12:53:47;;;;;;;7.90;4.10;;;21.70;41.40;;;;;;5066776;28;20477;-71
2021/12/26 12:56:32;;;;;;;10.57;3.80;;;21.70;41.60;;;;;;5049979;28;20404;-68
2021/12/26 12:59:16;;;;;;;7.22;4.00;;;21.70;40.80;;;;;;5059749;28;20463;-74
2021/12/26 13:01:48;;;;;;;9.75;3.88;;;21.70;41.10;;;;;;5052174;28;20394;-68